sensor_id;sensor_type;location;lat;lon;timestamp;P1;durP1;ratioP1;P2;durP2;ratioP2
705;SDS011;21234;48.690;9.016;2023-04-24T00:00:12;0.80;;;0.40;;
705;SDS011;21234;48.690;9.016;2023-04-24T00:02:40;0.63;;;0.50;;
705;SDS011;21234;48.690;9.016;2023-04-24T00:05:11;1.20;;;0.60;;
705;SDS011;21234;48.690;9.016;2023-04-24T00:07:38;1.63;;;0.70;;
705;SDS011;21234;48.690;9.016;2023-04-24T00:10:06;1.80;;;0.60;;
705;SDS011;21234;48.690;9.016;2023-04-24T00:12:33;1.00;;;0.63;;
705;SDS011;21234;48.690;9.016;2023-04-24T00:15:00;2.23;;;0.90;;
705;SDS011;21234;48.690;9.016;2023-04-24T00:17:28;0.60;;;0.53;;
705;SDS011;21234;48.690;9.016;2023-04-24T00:19:55;0.87;;;0.77;;
705;SDS011;21234;48.690;9.016;2023-04-24T00:22:24;0.83;;;0.60;;
705;SDS011;21234;48.690;9.016;2023-04-24T00:24:51;0.60;;;0.40;;
705;SDS011;21234;48.690;9.016;2023-04-24T00:27:17;1.73;;;0.97;;
705;SDS011;21234;48.690;9.016;2023-04-24T00:29:44;0.70;;;0.60;;
705;SDS011;21234;48.690;9.016;2023-04-24T00:32:11;1.00;;;0.50;;
705;SDS011;21234;48.690;9.016;2023-04-24T00:34:39;1.20;;;0.70;;
705;SDS011;21234;48.690;9.016;2023-04-24T00:37:06;0.70;;;0.60;;
705;SDS011;21234;48.690;9.016;2023-04-24T00:39:33;1.27;;;0.57;;
705;SDS011;21234;48.690;9.016;2023-04-24T00:41:59;0.60;;;0.40;;
705;SDS011;21234;48.690;9.016;2023-04-24T00:44:26;0.63;;;0.60;;
705;SDS011;21234;48.690;9.016;2023-04-24T00:46:54;3.33;;;0.87;;
705;SDS011;21234;48.690;9.016;2023-04-24T00:49:21;2.07;;;0.63;;
705;SDS011;21234;48.690;9.016;2023-04-24T00:51:49;1.07;;;0.60;;
705;SDS011;21234;48.690;9.016;2023-04-24T00:54:16;1.30;;;0.47;;
705;SDS011;21234;48.690;9.016;2023-04-24T00:56:44;0.50;;;0.50;;
705;SDS011;21234;48.690;9.016;2023-04-24T00:59:11;0.93;;;0.57;;
705;SDS011;21234;48.690;9.016;2023-04-24T01:01:41;0.90;;;0.60;;
705;SDS011;21234;48.690;9.016;2023-04-24T01:04:08;0.50;;;0.50;;
705;SDS011;21234;48.690;9.016;2023-04-24T01:06:36;0.83;;;0.60;;
705;SDS011;21234;48.690;9.016;2023-04-24T01:09:06;1.90;;;0.80;;
705;SDS011;21234;48.690;9.016;2023-04-24T01:11:34;1.13;;;0.70;;
705;SDS011;21234;48.690;9.016;2023-04-24T01:14:00;2.40;;;0.90;;
705;SDS011;21234;48.690;9.016;2023-04-24T01:16:27;1.30;;;0.60;;
705;SDS011;21234;48.690;9.016;2023-04-24T01:18:54;1.23;;;0.70;;
705;SDS011;21234;48.690;9.016;2023-04-24T01:21:21;0.70;;;0.70;;
705;SDS011;21234;48.690;9.016;2023-04-24T01:23:51;1.27;;;0.70;;
705;SDS011;21234;48.690;9.016;2023-04-24T01:26:18;1.33;;;0.50;;
705;SDS011;21234;48.690;9.016;2023-04-24T01:28:46;1.20;;;0.80;;
705;SDS011;21234;48.690;9.016;2023-04-24T01:31:12;1.73;;;0.77;;
705;SDS011;21234;48.690;9.016;2023-04-24T01:33:40;0.70;;;0.50;;
705;SDS011;21234;48.690;9.016;2023-04-24T01:36:08;1.03;;;0.70;;
705;SDS011;21234;48.690;9.016;2023-04-24T01:38:36;2.10;;;0.67;;
705;SDS011;21234;48.690;9.016;2023-04-24T01:41:05;0.70;;;0.50;;
705;SDS011;21234;48.690;9.016;2023-04-24T01:43:31;4.20;;;0.83;;
705;SDS011;21234;48.690;9.016;2023-04-24T01:45:58;1.40;;;0.57;;
705;SDS011;21234;48.690;9.016;2023-04-24T01:48:25;0.50;;;0.40;;
705;SDS011;21234;48.690;9.016;2023-04-24T01:50:52;1.30;;;0.53;;
705;SDS011;21234;48.690;9.016;2023-04-24T01:53:19;0.57;;;0.57;;
705;SDS011;21234;48.690;9.016;2023-04-24T01:55:45;1.00;;;0.50;;
705;SDS011;21234;48.690;9.016;2023-04-24T01:58:14;2.70;;;0.67;;
705;SDS011;21234;48.690;9.016;2023-04-24T02:00:40;0.70;;;0.47;;
705;SDS011;21234;48.690;9.016;2023-04-24T02:03:07;0.70;;;0.50;;
705;SDS011;21234;48.690;9.016;2023-04-24T02:05:34;1.10;;;0.53;;
705;SDS011;21234;48.690;9.016;2023-04-24T02:08:01;2.30;;;0.50;;
705;SDS011;21234;48.690;9.016;2023-04-24T02:10:27;0.60;;;0.60;;
705;SDS011;21234;48.690;9.016;2023-04-24T02:12:54;2.20;;;0.60;;
705;SDS011;21234;48.690;9.016;2023-04-24T02:15:22;1.00;;;0.80;;
705;SDS011;21234;48.690;9.016;2023-04-24T02:17:49;1.30;;;1.00;;
705;SDS011;21234;48.690;9.016;2023-04-24T02:20:15;1.00;;;0.90;;
705;SDS011;21234;48.690;9.016;2023-04-24T02:22:42;1.40;;;0.63;;
705;SDS011;21234;48.690;9.016;2023-04-24T02:25:09;1.00;;;0.70;;
705;SDS011;21234;48.690;9.016;2023-04-24T02:27:36;0.70;;;0.40;;
705;SDS011;21234;48.690;9.016;2023-04-24T02:30:03;0.87;;;0.50;;
705;SDS011;21234;48.690;9.016;2023-04-24T02:35:00;1.33;;;0.80;;
705;SDS011;21234;48.690;9.016;2023-04-24T02:37:27;1.00;;;0.60;;
705;SDS011;21234;48.690;9.016;2023-04-24T02:39:54;1.10;;;0.70;;
705;SDS011;21234;48.690;9.016;2023-04-24T02:42:20;2.13;;;0.50;;
705;SDS011;21234;48.690;9.016;2023-04-24T02:44:47;1.57;;;0.53;;
705;SDS011;21234;48.690;9.016;2023-04-24T02:47:16;0.60;;;0.50;;
705;SDS011;21234;48.690;9.016;2023-04-24T02:49:44;0.90;;;0.53;;
705;SDS011;21234;48.690;9.016;2023-04-24T02:52:11;0.67;;;0.67;;
705;SDS011;21234;48.690;9.016;2023-04-24T02:54:38;1.47;;;0.73;;
705;SDS011;21234;48.690;9.016;2023-04-24T02:57:05;2.40;;;1.03;;
705;SDS011;21234;48.690;9.016;2023-04-24T02:59:32;1.90;;;0.60;;
705;SDS011;21234;48.690;9.016;2023-04-24T03:01:59;0.60;;;0.50;;
705;SDS011;21234;48.690;9.016;2023-04-24T03:04:25;4.40;;;1.20;;
705;SDS011;21234;48.690;9.016;2023-04-24T03:06:54;1.47;;;0.80;;
705;SDS011;21234;48.690;9.016;2023-04-24T03:09:21;0.60;;;0.60;;
705;SDS011;21234;48.690;9.016;2023-04-24T03:11:48;1.27;;;0.70;;
705;SDS011;21234;48.690;9.016;2023-04-24T03:14:14;0.90;;;0.60;;
705;SDS011;21234;48.690;9.016;2023-04-24T03:16:41;0.80;;;0.60;;
705;SDS011;21234;48.690;9.016;2023-04-24T03:19:08;0.93;;;0.80;;
705;SDS011;21234;48.690;9.016;2023-04-24T03:21:35;0.80;;;0.40;;
705;SDS011;21234;48.690;9.016;2023-04-24T03:24:07;2.07;;;1.53;;
705;SDS011;21234;48.690;9.016;2023-04-24T03:26:33;0.60;;;0.43;;
705;SDS011;21234;48.690;9.016;2023-04-24T03:29:00;1.33;;;0.80;;
705;SDS011;21234;48.690;9.016;2023-04-24T03:31:27;1.83;;;0.60;;
705;SDS011;21234;48.690;9.016;2023-04-24T03:33:53;2.00;;;0.80;;
705;SDS011;21234;48.690;9.016;2023-04-24T03:36:20;2.60;;;0.70;;
705;SDS011;21234;48.690;9.016;2023-04-24T03:38:47;0.80;;;0.60;;
705;SDS011;21234;48.690;9.016;2023-04-24T03:41:15;0.70;;;0.60;;
705;SDS011;21234;48.690;9.016;2023-04-24T03:43:41;0.70;;;0.53;;
705;SDS011;21234;48.690;9.016;2023-04-24T03:46:08;1.47;;;0.63;;
705;SDS011;21234;48.690;9.016;2023-04-24T03:48:35;0.90;;;0.70;;
705;SDS011;21234;48.690;9.016;2023-04-24T03:51:02;1.43;;;0.90;;
705;SDS011;21234;48.690;9.016;2023-04-24T03:53:28;1.27;;;1.07;;
705;SDS011;21234;48.690;9.016;2023-04-24T03:55:55;1.07;;;0.53;;
705;SDS011;21234;48.690;9.016;2023-04-24T03:58:23;0.73;;;0.50;;
705;SDS011;21234;48.690;9.016;2023-04-24T04:00:50;3.40;;;0.60;;
705;SDS011;21234;48.690;9.016;2023-04-24T04:03:16;0.97;;;0.50;;
705;SDS011;21234;48.690;9.016;2023-04-24T04:05:44;0.57;;;0.40;;
705;SDS011;21234;48.690;9.016;2023-04-24T04:08:10;1.60;;;0.60;;
705;SDS011;21234;48.690;9.016;2023-04-24T04:10:37;0.83;;;0.60;;
705;SDS011;21234;48.690;9.016;2023-04-24T04:13:04;0.70;;;0.40;;
705;SDS011;21234;48.690;9.016;2023-04-24T04:15:32;0.70;;;0.50;;
705;SDS011;21234;48.690;9.016;2023-04-24T04:17:59;1.03;;;1.03;;
705;SDS011;21234;48.690;9.016;2023-04-24T04:20:26;1.07;;;0.50;;
705;SDS011;21234;48.690;9.016;2023-04-24T04:22:52;0.90;;;0.50;;
705;SDS011;21234;48.690;9.016;2023-04-24T04:25:19;1.17;;;0.57;;
705;SDS011;21234;48.690;9.016;2023-04-24T04:27:46;0.93;;;0.67;;
705;SDS011;21234;48.690;9.016;2023-04-24T04:30:13;1.90;;;1.10;;
705;SDS011;21234;48.690;9.016;2023-04-24T04:32:42;1.00;;;0.73;;
705;SDS011;21234;48.690;9.016;2023-04-24T04:35:09;2.20;;;1.40;;
705;SDS011;21234;48.690;9.016;2023-04-24T04:37:36;1.37;;;0.77;;
705;SDS011;21234;48.690;9.016;2023-04-24T04:40:03;1.20;;;0.80;;
705;SDS011;21234;48.690;9.016;2023-04-24T04:42:32;1.30;;;1.20;;
705;SDS011;21234;48.690;9.016;2023-04-24T04:44:59;0.93;;;0.90;;
705;SDS011;21234;48.690;9.016;2023-04-24T04:47:27;1.30;;;1.10;;
705;SDS011;21234;48.690;9.016;2023-04-24T04:49:58;1.00;;;0.73;;
705;SDS011;21234;48.690;9.016;2023-04-24T04:52:24;1.73;;;1.10;;
705;SDS011;21234;48.690;9.016;2023-04-24T04:54:51;0.97;;;0.80;;
705;SDS011;21234;48.690;9.016;2023-04-24T04:57:18;1.20;;;1.03;;
705;SDS011;21234;48.690;9.016;2023-04-24T04:59:45;1.43;;;1.20;;
705;SDS011;21234;48.690;9.016;2023-04-24T05:02:12;3.20;;;1.17;;
705;SDS011;21234;48.690;9.016;2023-04-24T05:04:38;2.10;;;0.90;;
705;SDS011;21234;48.690;9.016;2023-04-24T05:07:07;1.07;;;0.90;;
705;SDS011;21234;48.690;9.016;2023-04-24T05:09:34;1.53;;;1.30;;
705;SDS011;21234;48.690;9.016;2023-04-24T05:12:01;1.17;;;1.00;;
705;SDS011;21234;48.690;9.016;2023-04-24T05:14:27;1.63;;;0.90;;
705;SDS011;21234;48.690;9.016;2023-04-24T05:16:54;1.17;;;0.90;;
705;SDS011;21234;48.690;9.016;2023-04-24T05:19:21;1.17;;;1.07;;
705;SDS011;21234;48.690;9.016;2023-04-24T05:21:47;2.80;;;1.63;;
705;SDS011;21234;48.690;9.016;2023-04-24T05:24:15;1.90;;;1.03;;
705;SDS011;21234;48.690;9.016;2023-04-24T05:26:42;1.77;;;1.17;;
705;SDS011;21234;48.690;9.016;2023-04-24T05:29:09;2.77;;;1.47;;
705;SDS011;21234;48.690;9.016;2023-04-24T05:31:35;1.90;;;1.60;;
705;SDS011;21234;48.690;9.016;2023-04-24T05:34:02;1.40;;;1.27;;
705;SDS011;21234;48.690;9.016;2023-04-24T05:36:29;1.30;;;1.20;;
705;SDS011;21234;48.690;9.016;2023-04-24T05:38:55;2.10;;;1.23;;
705;SDS011;21234;48.690;9.016;2023-04-24T05:41:23;1.30;;;1.20;;
705;SDS011;21234;48.690;9.016;2023-04-24T05:43:50;2.67;;;1.27;;
705;SDS011;21234;48.690;9.016;2023-04-24T05:46:17;2.50;;;1.50;;
705;SDS011;21234;48.690;9.016;2023-04-24T05:48:44;2.00;;;1.63;;
705;SDS011;21234;48.690;9.016;2023-04-24T05:51:11;3.40;;;1.43;;
705;SDS011;21234;48.690;9.016;2023-04-24T05:53:37;1.70;;;1.57;;
705;SDS011;21234;48.690;9.016;2023-04-24T05:56:04;3.70;;;1.97;;
705;SDS011;21234;48.690;9.016;2023-04-24T05:58:32;1.73;;;1.37;;
705;SDS011;21234;48.690;9.016;2023-04-24T06:00:59;3.40;;;1.50;;
705;SDS011;21234;48.690;9.016;2023-04-24T06:03:26;2.10;;;1.80;;
705;SDS011;21234;48.690;9.016;2023-04-24T06:05:53;1.90;;;1.40;;
705;SDS011;21234;48.690;9.016;2023-04-24T06:08:20;1.60;;;1.50;;
705;SDS011;21234;48.690;9.016;2023-04-24T06:10:47;2.60;;;1.37;;
705;SDS011;21234;48.690;9.016;2023-04-24T06:13:13;1.50;;;1.20;;
705;SDS011;21234;48.690;9.016;2023-04-24T06:15:42;3.60;;;2.13;;
705;SDS011;21234;48.690;9.016;2023-04-24T06:18:10;1.67;;;1.50;;
705;SDS011;21234;48.690;9.016;2023-04-24T06:20:37;3.50;;;1.93;;
705;SDS011;21234;48.690;9.016;2023-04-24T06:23:04;1.97;;;1.30;;
705;SDS011;21234;48.690;9.016;2023-04-24T06:25:31;1.97;;;1.60;;
705;SDS011;21234;48.690;9.016;2023-04-24T06:27:58;1.93;;;1.63;;
705;SDS011;21234;48.690;9.016;2023-04-24T06:30:25;1.83;;;1.60;;
705;SDS011;21234;48.690;9.016;2023-04-24T06:32:53;1.87;;;1.63;;
705;SDS011;21234;48.690;9.016;2023-04-24T06:35:20;1.50;;;1.37;;
705;SDS011;21234;48.690;9.016;2023-04-24T06:37:47;1.70;;;1.60;;
705;SDS011;21234;48.690;9.016;2023-04-24T06:40:13;2.20;;;1.97;;
705;SDS011;21234;48.690;9.016;2023-04-24T06:42:40;5.30;;;1.67;;
705;SDS011;21234;48.690;9.016;2023-04-24T06:45:07;1.50;;;1.40;;
705;SDS011;21234;48.690;9.016;2023-04-24T06:47:34;1.50;;;1.30;;
705;SDS011;21234;48.690;9.016;2023-04-24T06:50:03;3.40;;;2.43;;
705;SDS011;21234;48.690;9.016;2023-04-24T06:52:30;2.67;;;1.67;;
705;SDS011;21234;48.690;9.016;2023-04-24T06:54:59;1.70;;;1.60;;
705;SDS011;21234;48.690;9.016;2023-04-24T06:57:26;1.40;;;1.20;;
705;SDS011;21234;48.690;9.016;2023-04-24T06:59:53;1.40;;;1.27;;
705;SDS011;21234;48.690;9.016;2023-04-24T07:02:20;1.27;;;1.17;;
705;SDS011;21234;48.690;9.016;2023-04-24T07:04:47;2.97;;;1.83;;
705;SDS011;21234;48.690;9.016;2023-04-24T07:07:15;1.90;;;1.80;;
705;SDS011;21234;48.690;9.016;2023-04-24T07:09:42;2.07;;;1.50;;
705;SDS011;21234;48.690;9.016;2023-04-24T07:12:10;3.20;;;1.20;;
705;SDS011;21234;48.690;9.016;2023-04-24T07:14:39;1.47;;;1.10;;
705;SDS011;21234;48.690;9.016;2023-04-24T07:17:06;2.27;;;1.47;;
705;SDS011;21234;48.690;9.016;2023-04-24T07:19:33;1.40;;;1.20;;
705;SDS011;21234;48.690;9.016;2023-04-24T07:22:00;1.63;;;1.23;;
705;SDS011;21234;48.690;9.016;2023-04-24T07:24:29;2.00;;;1.07;;
705;SDS011;21234;48.690;9.016;2023-04-24T07:26:57;1.47;;;1.20;;
705;SDS011;21234;48.690;9.016;2023-04-24T07:29:23;1.47;;;1.37;;
705;SDS011;21234;48.690;9.016;2023-04-24T07:31:50;1.70;;;1.37;;
705;SDS011;21234;48.690;9.016;2023-04-24T07:34:17;0.83;;;0.70;;
705;SDS011;21234;48.690;9.016;2023-04-24T07:36:43;2.90;;;1.23;;
705;SDS011;21234;48.690;9.016;2023-04-24T07:39:10;1.57;;;0.97;;
705;SDS011;21234;48.690;9.016;2023-04-24T07:41:38;1.30;;;1.10;;
705;SDS011;21234;48.690;9.016;2023-04-24T07:44:05;1.33;;;0.83;;
705;SDS011;21234;48.690;9.016;2023-04-24T07:46:32;1.20;;;1.10;;
705;SDS011;21234;48.690;9.016;2023-04-24T07:48:59;1.97;;;1.17;;
705;SDS011;21234;48.690;9.016;2023-04-24T07:51:26;1.00;;;1.00;;
705;SDS011;21234;48.690;9.016;2023-04-24T07:53:53;1.37;;;1.27;;
705;SDS011;21234;48.690;9.016;2023-04-24T07:56:20;1.70;;;1.60;;
705;SDS011;21234;48.690;9.016;2023-04-24T07:58:49;1.47;;;1.07;;
705;SDS011;21234;48.690;9.016;2023-04-24T08:01:15;1.30;;;1.20;;
705;SDS011;21234;48.690;9.016;2023-04-24T08:03:42;1.43;;;1.20;;
705;SDS011;21234;48.690;9.016;2023-04-24T08:06:09;1.90;;;1.10;;
705;SDS011;21234;48.690;9.016;2023-04-24T08:08:35;2.77;;;1.80;;
705;SDS011;21234;48.690;9.016;2023-04-24T08:11:02;1.30;;;1.20;;
705;SDS011;21234;48.690;9.016;2023-04-24T08:13:29;1.10;;;1.00;;
705;SDS011;21234;48.690;9.016;2023-04-24T08:15:57;2.00;;;1.30;;
705;SDS011;21234;48.690;9.016;2023-04-24T08:18:24;2.07;;;1.53;;
705;SDS011;21234;48.690;9.016;2023-04-24T08:20:51;1.47;;;1.37;;
705;SDS011;21234;48.690;9.016;2023-04-24T08:23:18;2.00;;;1.07;;
705;SDS011;21234;48.690;9.016;2023-04-24T08:25:45;4.73;;;2.03;;
705;SDS011;21234;48.690;9.016;2023-04-24T08:28:12;1.63;;;1.53;;
705;SDS011;21234;48.690;9.016;2023-04-24T08:30:45;0.93;;;0.90;;
705;SDS011;21234;48.690;9.016;2023-04-24T08:33:13;2.03;;;0.90;;
705;SDS011;21234;48.690;9.016;2023-04-24T08:35:40;1.23;;;1.03;;
705;SDS011;21234;48.690;9.016;2023-04-24T08:38:06;1.10;;;0.93;;
705;SDS011;21234;48.690;9.016;2023-04-24T08:40:34;1.77;;;0.93;;
705;SDS011;21234;48.690;9.016;2023-04-24T08:43:01;3.60;;;1.23;;
705;SDS011;21234;48.690;9.016;2023-04-24T08:45:28;2.43;;;1.50;;
705;SDS011;21234;48.690;9.016;2023-04-24T08:47:55;1.87;;;1.20;;
705;SDS011;21234;48.690;9.016;2023-04-24T08:50:25;1.97;;;1.40;;
705;SDS011;21234;48.690;9.016;2023-04-24T08:52:52;2.37;;;1.40;;
705;SDS011;21234;48.690;9.016;2023-04-24T08:55:19;5.30;;;1.33;;
705;SDS011;21234;48.690;9.016;2023-04-24T08:57:49;1.30;;;1.03;;
705;SDS011;21234;48.690;9.016;2023-04-24T09:00:17;2.53;;;1.40;;
705;SDS011;21234;48.690;9.016;2023-04-24T09:02:45;3.40;;;1.70;;
705;SDS011;21234;48.690;9.016;2023-04-24T09:05:15;1.50;;;1.40;;
705;SDS011;21234;48.690;9.016;2023-04-24T09:07:45;1.40;;;1.20;;
705;SDS011;21234;48.690;9.016;2023-04-24T09:10:15;4.10;;;1.60;;
705;SDS011;21234;48.690;9.016;2023-04-24T09:12:42;1.70;;;0.97;;
705;SDS011;21234;48.690;9.016;2023-04-24T09:15:10;1.53;;;1.20;;
705;SDS011;21234;48.690;9.016;2023-04-24T09:17:37;1.73;;;1.20;;
705;SDS011;21234;48.690;9.016;2023-04-24T09:20:04;0.97;;;0.93;;
705;SDS011;21234;48.690;9.016;2023-04-24T09:22:32;2.80;;;1.20;;
705;SDS011;21234;48.690;9.016;2023-04-24T09:25:04;1.20;;;0.90;;
705;SDS011;21234;48.690;9.016;2023-04-24T09:27:32;1.00;;;0.90;;
705;SDS011;21234;48.690;9.016;2023-04-24T09:29:59;1.43;;;1.17;;
705;SDS011;21234;48.690;9.016;2023-04-24T09:32:26;2.30;;;1.10;;
705;SDS011;21234;48.690;9.016;2023-04-24T09:35:08;1.67;;;1.07;;
705;SDS011;21234;48.690;9.016;2023-04-24T09:37:36;3.17;;;1.23;;
705;SDS011;21234;48.690;9.016;2023-04-24T09:40:08;2.07;;;1.20;;
705;SDS011;21234;48.690;9.016;2023-04-24T09:42:39;1.90;;;0.83;;
705;SDS011;21234;48.690;9.016;2023-04-24T09:45:09;4.90;;;1.57;;
705;SDS011;21234;48.690;9.016;2023-04-24T09:47:36;2.97;;;0.87;;
705;SDS011;21234;48.690;9.016;2023-04-24T09:50:10;1.00;;;0.80;;
705;SDS011;21234;48.690;9.016;2023-04-24T09:52:42;0.90;;;0.60;;
705;SDS011;21234;48.690;9.016;2023-04-24T09:55:12;1.07;;;0.97;;
705;SDS011;21234;48.690;9.016;2023-04-24T09:57:49;1.13;;;1.03;;
705;SDS011;21234;48.690;9.016;2023-04-24T10:00:23;0.90;;;0.90;;
705;SDS011;21234;48.690;9.016;2023-04-24T10:02:55;1.40;;;0.80;;
705;SDS011;21234;48.690;9.016;2023-04-24T10:05:23;2.83;;;0.93;;
705;SDS011;21234;48.690;9.016;2023-04-24T10:07:51;1.67;;;1.10;;
705;SDS011;21234;48.690;9.016;2023-04-24T10:10:23;1.23;;;0.90;;
705;SDS011;21234;48.690;9.016;2023-04-24T10:12:50;0.93;;;0.80;;
705;SDS011;21234;48.690;9.016;2023-04-24T10:15:17;1.20;;;0.73;;
705;SDS011;21234;48.690;9.016;2023-04-24T10:17:46;1.57;;;0.70;;
705;SDS011;21234;48.690;9.016;2023-04-24T10:20:18;1.40;;;1.30;;
705;SDS011;21234;48.690;9.016;2023-04-24T10:22:48;2.40;;;1.00;;
705;SDS011;21234;48.690;9.016;2023-04-24T10:25:16;0.80;;;0.70;;
705;SDS011;21234;48.690;9.016;2023-04-24T10:27:46;1.00;;;0.90;;
705;SDS011;21234;48.690;9.016;2023-04-24T10:30:14;1.20;;;1.10;;
705;SDS011;21234;48.690;9.016;2023-04-24T10:32:41;1.10;;;0.80;;
705;SDS011;21234;48.690;9.016;2023-04-24T10:35:08;0.60;;;0.60;;
705;SDS011;21234;48.690;9.016;2023-04-24T10:37:36;2.00;;;0.93;;
705;SDS011;21234;48.690;9.016;2023-04-24T10:40:05;1.73;;;1.30;;
705;SDS011;21234;48.690;9.016;2023-04-24T10:42:33;1.17;;;0.73;;
705;SDS011;21234;48.690;9.016;2023-04-24T10:45:05;2.37;;;1.00;;
705;SDS011;21234;48.690;9.016;2023-04-24T10:47:39;1.33;;;0.87;;
705;SDS011;21234;48.690;9.016;2023-04-24T10:50:07;1.00;;;0.80;;
705;SDS011;21234;48.690;9.016;2023-04-24T10:52:44;1.00;;;0.80;;
705;SDS011;21234;48.690;9.016;2023-04-24T10:55:12;2.03;;;0.90;;
705;SDS011;21234;48.690;9.016;2023-04-24T10:57:39;2.20;;;1.00;;
705;SDS011;21234;48.690;9.016;2023-04-24T11:00:12;1.70;;;1.20;;
705;SDS011;21234;48.690;9.016;2023-04-24T11:02:40;1.13;;;0.90;;
705;SDS011;21234;48.690;9.016;2023-04-24T11:05:14;2.20;;;1.00;;
705;SDS011;21234;48.690;9.016;2023-04-24T11:10:43;1.57;;;0.77;;
705;SDS011;21234;48.690;9.016;2023-04-24T11:13:10;3.27;;;0.90;;
705;SDS011;21234;48.690;9.016;2023-04-24T11:15:42;1.37;;;0.87;;
705;SDS011;21234;48.690;9.016;2023-04-24T11:18:12;1.20;;;1.00;;
705;SDS011;21234;48.690;9.016;2023-04-24T11:20:41;1.47;;;1.37;;
705;SDS011;21234;48.690;9.016;2023-04-24T11:23:08;2.47;;;1.10;;
705;SDS011;21234;48.690;9.016;2023-04-24T11:25:37;0.70;;;0.70;;
705;SDS011;21234;48.690;9.016;2023-04-24T11:28:04;0.77;;;0.77;;
705;SDS011;21234;48.690;9.016;2023-04-24T11:30:32;3.07;;;1.00;;
705;SDS011;21234;48.690;9.016;2023-04-24T11:33:04;3.70;;;1.27;;
705;SDS011;21234;48.690;9.016;2023-04-24T11:35:34;2.77;;;1.33;;
705;SDS011;21234;48.690;9.016;2023-04-24T11:38:05;3.27;;;1.20;;
705;SDS011;21234;48.690;9.016;2023-04-24T11:40:32;1.47;;;0.80;;
705;SDS011;21234;48.690;9.016;2023-04-24T11:42:59;1.83;;;0.80;;
705;SDS011;21234;48.690;9.016;2023-04-24T11:45:27;2.00;;;1.27;;
705;SDS011;21234;48.690;9.016;2023-04-24T11:47:54;0.80;;;0.80;;
705;SDS011;21234;48.690;9.016;2023-04-24T11:50:23;0.80;;;0.80;;
705;SDS011;21234;48.690;9.016;2023-04-24T11:52:52;3.07;;;1.20;;
705;SDS011;21234;48.690;9.016;2023-04-24T11:55:24;2.50;;;1.10;;
705;SDS011;21234;48.690;9.016;2023-04-24T11:57:52;0.93;;;0.90;;
705;SDS011;21234;48.690;9.016;2023-04-24T12:00:21;1.20;;;0.93;;
705;SDS011;21234;48.690;9.016;2023-04-24T12:02:49;2.23;;;1.10;;
705;SDS011;21234;48.690;9.016;2023-04-24T12:05:19;1.33;;;1.00;;
705;SDS011;21234;48.690;9.016;2023-04-24T12:07:48;1.50;;;1.30;;
705;SDS011;21234;48.690;9.016;2023-04-24T12:10:19;2.03;;;1.33;;
705;SDS011;21234;48.690;9.016;2023-04-24T12:12:46;1.80;;;1.47;;
705;SDS011;21234;48.690;9.016;2023-04-24T12:15:15;1.13;;;1.03;;
705;SDS011;21234;48.690;9.016;2023-04-24T12:17:43;1.83;;;1.10;;
705;SDS011;21234;48.690;9.016;2023-04-24T12:20:11;2.60;;;1.50;;
705;SDS011;21234;48.690;9.016;2023-04-24T12:22:45;1.20;;;1.10;;
705;SDS011;21234;48.690;9.016;2023-04-24T12:25:14;1.97;;;1.33;;
705;SDS011;21234;48.690;9.016;2023-04-24T12:27:42;1.90;;;1.63;;
705;SDS011;21234;48.690;9.016;2023-04-24T12:30:11;1.43;;;1.00;;
705;SDS011;21234;48.690;9.016;2023-04-24T12:32:42;1.50;;;1.10;;
705;SDS011;21234;48.690;9.016;2023-04-24T12:35:09;1.20;;;1.10;;
705;SDS011;21234;48.690;9.016;2023-04-24T12:37:36;1.63;;;1.00;;
705;SDS011;21234;48.690;9.016;2023-04-24T12:40:05;1.23;;;1.10;;
705;SDS011;21234;48.690;9.016;2023-04-24T12:42:35;1.30;;;0.90;;
705;SDS011;21234;48.690;9.016;2023-04-24T12:45:07;2.13;;;1.00;;
705;SDS011;21234;48.690;9.016;2023-04-24T12:47:34;2.67;;;1.13;;
705;SDS011;21234;48.690;9.016;2023-04-24T12:50:01;1.33;;;1.13;;
705;SDS011;21234;48.690;9.016;2023-04-24T12:52:29;1.30;;;1.07;;
705;SDS011;21234;48.690;9.016;2023-04-24T12:54:57;3.13;;;1.23;;
705;SDS011;21234;48.690;9.016;2023-04-24T12:57:25;1.80;;;1.00;;
705;SDS011;21234;48.690;9.016;2023-04-24T12:59:53;1.60;;;1.00;;
705;SDS011;21234;48.690;9.016;2023-04-24T13:02:21;1.13;;;1.00;;
705;SDS011;21234;48.690;9.016;2023-04-24T13:04:48;1.87;;;0.90;;
705;SDS011;21234;48.690;9.016;2023-04-24T13:07:15;1.93;;;1.33;;
705;SDS011;21234;48.690;9.016;2023-04-24T13:09:42;4.93;;;0.97;;
705;SDS011;21234;48.690;9.016;2023-04-24T13:12:10;1.20;;;0.93;;
705;SDS011;21234;48.690;9.016;2023-04-24T13:14:38;1.80;;;1.47;;
705;SDS011;21234;48.690;9.016;2023-04-24T13:17:06;2.40;;;1.10;;
705;SDS011;21234;48.690;9.016;2023-04-24T13:19:37;1.50;;;1.40;;
705;SDS011;21234;48.690;9.016;2023-04-24T13:22:04;1.00;;;0.80;;
705;SDS011;21234;48.690;9.016;2023-04-24T13:24:31;1.20;;;1.00;;
705;SDS011;21234;48.690;9.016;2023-04-24T13:26:59;1.60;;;1.50;;
705;SDS011;21234;48.690;9.016;2023-04-24T13:29:26;3.50;;;1.40;;
705;SDS011;21234;48.690;9.016;2023-04-24T13:31:53;6.70;;;3.03;;
705;SDS011;21234;48.690;9.016;2023-04-24T13:34:22;1.63;;;1.03;;
705;SDS011;21234;48.690;9.016;2023-04-24T13:36:49;1.73;;;1.57;;
705;SDS011;21234;48.690;9.016;2023-04-24T13:39:16;1.90;;;1.17;;
705;SDS011;21234;48.690;9.016;2023-04-24T13:41:43;3.17;;;1.70;;
705;SDS011;21234;48.690;9.016;2023-04-24T13:44:10;1.50;;;1.40;;
705;SDS011;21234;48.690;9.016;2023-04-24T13:46:37;1.83;;;1.50;;
705;SDS011;21234;48.690;9.016;2023-04-24T13:49:03;2.13;;;1.97;;
705;SDS011;21234;48.690;9.016;2023-04-24T13:51:32;2.30;;;2.07;;
705;SDS011;21234;48.690;9.016;2023-04-24T13:53:59;1.70;;;1.30;;
705;SDS011;21234;48.690;9.016;2023-04-24T13:56:25;2.70;;;1.50;;
705;SDS011;21234;48.690;9.016;2023-04-24T13:58:52;2.07;;;1.90;;
705;SDS011;21234;48.690;9.016;2023-04-24T14:01:20;3.67;;;1.77;;
705;SDS011;21234;48.690;9.016;2023-04-24T14:03:49;2.50;;;1.57;;
705;SDS011;21234;48.690;9.016;2023-04-24T14:06:16;3.43;;;2.17;;
705;SDS011;21234;48.690;9.016;2023-04-24T14:08:44;2.83;;;2.20;;
705;SDS011;21234;48.690;9.016;2023-04-24T14:11:11;1.83;;;1.60;;
705;SDS011;21234;48.690;9.016;2023-04-24T14:13:38;2.93;;;1.50;;
705;SDS011;21234;48.690;9.016;2023-04-24T14:16:06;1.83;;;1.70;;
705;SDS011;21234;48.690;9.016;2023-04-24T14:18:33;2.47;;;2.00;;
705;SDS011;21234;48.690;9.016;2023-04-24T14:21:01;2.50;;;2.23;;
705;SDS011;21234;48.690;9.016;2023-04-24T14:23:28;1.93;;;1.80;;
705;SDS011;21234;48.690;9.016;2023-04-24T14:25:56;3.97;;;2.07;;
705;SDS011;21234;48.690;9.016;2023-04-24T14:28:23;2.97;;;2.03;;
705;SDS011;21234;48.690;9.016;2023-04-24T14:30:51;2.33;;;2.13;;
705;SDS011;21234;48.690;9.016;2023-04-24T14:33:18;3.80;;;2.10;;
705;SDS011;21234;48.690;9.016;2023-04-24T14:35:45;2.27;;;2.03;;
705;SDS011;21234;48.690;9.016;2023-04-24T14:38:12;2.83;;;1.73;;
705;SDS011;21234;48.690;9.016;2023-04-24T14:40:40;1.40;;;1.30;;
705;SDS011;21234;48.690;9.016;2023-04-24T14:43:08;2.10;;;1.90;;
705;SDS011;21234;48.690;9.016;2023-04-24T14:45:35;1.73;;;1.63;;
705;SDS011;21234;48.690;9.016;2023-04-24T14:48:03;2.20;;;1.60;;
705;SDS011;21234;48.690;9.016;2023-04-24T14:50:30;2.17;;;1.60;;
705;SDS011;21234;48.690;9.016;2023-04-24T14:52:56;2.03;;;1.87;;
705;SDS011;21234;48.690;9.016;2023-04-24T14:55:23;1.97;;;1.77;;
705;SDS011;21234;48.690;9.016;2023-04-24T14:57:51;4.00;;;2.53;;
705;SDS011;21234;48.690;9.016;2023-04-24T15:00:19;1.50;;;1.40;;
705;SDS011;21234;48.690;9.016;2023-04-24T15:02:48;1.60;;;1.50;;
705;SDS011;21234;48.690;9.016;2023-04-24T15:05:15;2.77;;;1.30;;
705;SDS011;21234;48.690;9.016;2023-04-24T15:07:41;1.47;;;1.20;;
705;SDS011;21234;48.690;9.016;2023-04-24T15:10:09;1.27;;;1.17;;
705;SDS011;21234;48.690;9.016;2023-04-24T15:12:36;2.27;;;1.53;;
705;SDS011;21234;48.690;9.016;2023-04-24T15:15:03;1.60;;;1.20;;
705;SDS011;21234;48.690;9.016;2023-04-24T15:17:32;1.50;;;1.40;;
705;SDS011;21234;48.690;9.016;2023-04-24T15:19:58;1.70;;;1.47;;
705;SDS011;21234;48.690;9.016;2023-04-24T15:22:25;1.67;;;1.33;;